• Join FlightAware (Why Join?)
  • Login
  • US Flag 
06:45AM EDT


 

Airport Tracker/Info


-or-


 

Live Flight TrackerFlight Track Log ✈ AAY890 ✈ 09-Jun-2014 ✈ KPIE - KFWA

Flight Track Log - Related Links

Times and Time Zones

All times are in EDT time to prevent confusion due to time zone crossing. See the AAY890 flight status page for this flight to view local times or setup timezone preferences in your user account.

Time Position Orientation Groundspeed Altitude Reporting Facility
EDT Latitude Longitude Course Direction KTS MPH feet Rate Location/Type
04:16PM 27.9333 -82.7000 351° North 170 196 800  Level Tampa TRACON
04:17PM 27.9667 -82.7000 360° North 181 208 2,000 1,800 Climbing Tampa TRACON
04:18PM 28.0333 -82.7167 348° North 271 312 4,100 2,580 Climbing Tampa TRACON
04:20PM 28.1856 -82.7467 350° North 292 336 10,000 2,580 Climbing Miami Center
04:21PM 28.2678 -82.7492 358° North 291 335 11,900 1,200 Climbing Miami Center
04:22PM 28.5727 -82.8272 351° North  Level FlightAware Approximate
04:22PM 28.3556 -82.7572 355° North 312 359 12,500  Level Miami Center
04:23PM 28.4572 -82.7803 349° North 367 422 14,300 1,920 Climbing Miami Center
04:24PM 28.5664 -82.8056 349° North 392 451 16,500 2,040 Climbing Miami Center
04:25PM 28.6828 -82.8322 349° North 406 467 18,600 1,860 Climbing Miami Center
04:26PM 28.8000 -82.8586 349° North 423 487 20,400 1,800 Climbing Miami Center
04:27PM 28.9514 -82.8972 347° North 430 495 22,600 1,620 Climbing Jacksonville Center
04:28PM 29.0767 -82.9258 349° North 442 509 24,000 1,440 Climbing Jacksonville Center
04:29PM 29.2039 -82.9567 348° North 453 521 25,500 1,320 Climbing Jacksonville Center
04:30PM 29.3353 -82.9856 349° North 459 528 26,700 1,500 Climbing Jacksonville Center
04:31PM 29.4544 -83.0333 341° North 465 535 28,600 1,620 Climbing Jacksonville Center
04:32PM 29.5836 -83.0908 339° North 476 548 30,000 1,260 Climbing Jacksonville Center
04:33PM 29.7067 -83.1414 340° North 476 548 31,200 1,140 Climbing Jacksonville Center
04:34PM 29.8256 -83.1942 339° North 469 540 32,300 900 Climbing Jacksonville Center
04:35PM 29.9508 -83.2522 338° Northwest 470 541 33,100 840 Climbing Jacksonville Center
04:36PM 30.0739 -83.3031 340° North 475 547 34,000 420 Climbing Jacksonville Center
04:37PM 30.1967 -83.3564 339° North 475 547 34,000 -60 Level Jacksonville Center
04:38PM 30.3197 -83.4100 339° North 475 547 33,900 -60 Descending Jacksonville Center
04:39PM 30.4531 -83.4708 339° North 475 547 33,900  Level Jacksonville Center
04:40PM 30.5761 -83.5247 339° North 475 547 33,900  Level Jacksonville Center
04:41PM 30.6947 -83.5786 339° North 469 540 34,000  Climbing Jacksonville Center
04:42PM 30.8197 -83.6353 339° North 469 540 34,000  Level Jacksonville Center
04:43PM 30.9406 -83.6919 338° Northwest 469 540 34,000  Level Jacksonville Center
04:44PM 31.0675 -83.7464 340° North 474 545 34,000  Level Jacksonville Center
04:45PM 31.1842 -83.8033 337° Northwest 469 540 34,000  Level Jacksonville Center
04:47PM 31.4522 -83.9317 338° Northwest 471 542 34,000  Level Atlanta Center
04:48PM 31.5756 -83.9781 342° North 466 536 34,000  Level Atlanta Center
04:49PM 31.7050 -84.0022 351° North 466 536 34,000  Level Atlanta Center
04:50PM 31.8342 -84.0292 350° North 466 536 34,000  Level Atlanta Center
04:51PM 31.9636 -84.0558 350° North 466 536 34,000  Level Atlanta Center
04:52PM 32.0911 -84.0856 349° North 466 536 34,000  Level Atlanta Center
04:53PM 32.2203 -84.1150 349° North 466 536 34,000  Level Atlanta Center
04:54PM 32.3497 -84.1422 350° North 466 536 34,000  Level Atlanta Center
04:55PM 32.4769 -84.1719 349° North 466 536 34,000  Level Atlanta Center
04:56PM 32.6044 -84.1992 350° North 466 536 34,000  Level Atlanta Center
04:57PM 32.7169 -84.2264 348° North 466 536 34,000  Level Atlanta Center
04:58PM 32.8444 -84.2564 349° North 466 536 34,000  Level Atlanta Center
04:59PM 32.9717 -84.2864 349° North 466 536 34,000  Level Atlanta Center
05:00PM 33.0989 -84.3067 352° North 466 536 34,000  Level Atlanta Center
05:01PM 33.2283 -84.3069 360° North 466 536 34,000  Level Atlanta Center
05:02PM 33.3556 -84.3050 North 459 528 34,000  Level Atlanta Center
05:03PM 33.4850 -84.3053 360° North 459 528 34,000  Level Atlanta Center
05:04PM 33.6250 -84.3058 360° North 446 513 34,000  Level Atlanta Center
05:05PM 33.7500 -84.3061 360° North 446 513 34,000  Level Atlanta Center
05:06PM 33.8794 -84.3067 360° North 446 513 34,000  Level Atlanta Center
05:07PM 34.0006 -84.3069 360° North 448 516 34,000  Level Atlanta Center
05:08PM 34.1364 -84.3022 North 455 524 34,000  Level Atlanta Center
05:09PM 34.2636 -84.3053 359° North 462 532 34,000  Level Atlanta Center
05:10PM 34.3889 -84.3056 360° North 457 526 34,000  Level Atlanta Center
05:11PM 34.5161 -84.3061 360° North 457 526 34,000  Level Atlanta Center
05:12PM 34.6433 -84.3089 359° North 457 526 34,000  Level Atlanta Center
05:13PM 34.7667 -84.3042 North 452 520 34,000  Level Atlanta Center
05:14PM 34.8981 -84.3072 359° North 452 520 34,000  Level Atlanta Center
05:15PM 35.0064 -84.3075 360° North 446 513 34,000  Level Atlanta Center
05:16PM 35.1297 -84.3081 360° North 441 507 34,000  Level Atlanta Center
05:17PM 35.2569 -84.3083 360° North 441 507 34,000  Level Atlanta Center
05:18PM 35.3822 -84.3061 North 441 507 34,000  Level Atlanta Center
05:19PM 35.5094 -84.3067 360° North 441 507 34,000  Level Atlanta Center
05:20PM 35.6367 -84.3069 360° North 446 513 34,000  Level Atlanta Center
05:21PM 35.7639 -84.3050 North 446 513 34,000  Level Atlanta Center
05:22PM 35.8911 -84.3078 359° North 451 519 34,000  Level Atlanta Center
05:23PM 36.0183 -84.3058 North 451 519 34,000  Level Atlanta Center
05:24PM 36.1456 -84.3061 360° North 451 519 34,000  Level Atlanta Center
05:25PM 36.2703 -84.3078 359° North 457 526 34,000  Level Indianapolis Center
05:26PM 36.3972 -84.3075 360° North 457 526 34,000  Level Indianapolis Center
05:27PM 36.5239 -84.3081 360° North 457 526 34,000  Level Indianapolis Center
05:28PM 36.6525 -84.3086 360° North 457 526 34,000  Level Indianapolis Center
05:29PM 36.7814 -84.3103 359° North 457 526 34,000  Level Indianapolis Center
05:31PM 36.9106 -84.3108 360° North 458 527 34,000  Level Indianapolis Center
05:32PM 37.0383 -84.3100 360° North 458 527 34,000  Level Indianapolis Center
05:33PM 37.1889 -84.3106 360° North 458 527 34,000  Level Indianapolis Center
05:34PM 37.3169 -84.3122 359° North 458 527 34,000  Level Indianapolis Center
05:35PM 37.4419 -84.3331 352° North 455 524 34,000  Level Indianapolis Center
05:36PM 37.5625 -84.3644 348° North 446 513 34,000  Level Indianapolis Center
05:37PM 37.6842 -84.3933 349° North 444 511 34,000  Level Indianapolis Center
05:38PM 37.8053 -84.4233 349° North 444 511 34,000  Level Indianapolis Center
05:39PM 37.9267 -84.4514 350° North 444 511 34,000  Level Indianapolis Center
05:40PM 38.0700 -84.4853 349° North 444 511 34,000  Level Indianapolis Center
05:41PM 38.1942 -84.5092 351° North 448 516 34,000  Level Indianapolis Center
05:42PM 38.3158 -84.5383 349° North 448 516 34,000  Level Indianapolis Center
05:43PM 38.4383 -84.5661 350° North 447 514 34,000  Level Indianapolis Center
05:44PM 38.5603 -84.5947 350° North 447 514 34,000  Level Indianapolis Center
05:45PM 38.6739 -84.6222 349° North 447 514 34,000  Level Indianapolis Center
05:46PM 38.8239 -84.6569 350° North 451 519 34,000  Level Indianapolis Center
05:47PM 38.9522 -84.6892 349° North 451 519 34,000 -540 Level Indianapolis Center
05:48PM 39.0739 -84.7186 349° North 449 517 33,000 -540 Descending Indianapolis Center
05:49PM 39.1967 -84.7472 350° North 446 513 33,000 -720 Level Indianapolis Center
05:50PM 39.3175 -84.7772 349° North 446 513 31,600 -1,980 Descending Indianapolis Center
05:51PM 39.4339 -84.8058 349° North 433 498 29,000 -3,000 Descending Indianapolis Center
05:52PM 39.5531 -84.8350 349° North 430 495 25,500 -2,460 Descending Indianapolis Center
05:53PM 39.6750 -84.8653 349° North 437 503 24,000 -780 Descending Indianapolis Center
05:54PM 39.8067 -84.8972 349° North 437 503 24,000  Level Indianapolis Center
05:55PM 39.9250 -84.9275 349° North 437 503 24,000 -900 Level Indianapolis Center
05:56PM 40.0425 -84.9564 349° North 437 503 22,200 -2,580 Descending Indianapolis Center
05:57PM 40.1575 -84.9847 349° North 429 494 18,800 -3,240 Descending Indianapolis Center
05:58PM 40.2844 -85.0167 349° North 397 457 15,600 -3,120 Descending Indianapolis Center
05:59PM 40.3853 -85.0419 349° North 375 432 12,400 -2,280 Descending Indianapolis Center
06:00PM 40.4764 -85.0656 349° North 350 403 11,000 -1,380 Descending Indianapolis Center
06:01PM 40.5567 -85.0853 349° North 311 358 9,600 -1,380 Descending Indianapolis Center
06:02PM 40.6364 -85.1061 349° North 297 342 8,200 -1,500 Descending Indianapolis Center
06:03PM 40.7122 -85.1264 349° North 284 327 6,500 -1,620 Descending Indianapolis Center
06:04PM 40.7761 -85.1800 328° Northwest 288 331 4,900 -1,020 Descending Indianapolis Center
06:06PM 40.8756 -85.2703 326° Northwest 265 305 4,000 -360 Descending Chicago Center
06:07PM 40.9192 -85.3247 317° Northwest 234 269 4,000 -300 Level Chicago Center
06:08PM 40.9728 -85.3467 343° North 214 246 3,500 -600 Descending Chicago Center
06:09PM 41.0194 -85.3092 31° Northeast 203 234 2,800 -780 Descending Chicago Center
06:10PM 41.0300 -85.2567 75° East 180 207 1,900 -660 Descending Chicago Center
06:11PM 40.9975 -85.2131 135° Southeast 164 189 1,500 -420 Descending Chicago Center